Manns Choice, Pennsylvania
Current Conditions -  °F | °C
As of 5:55 PM on Tuesday 27 Jan 2015 (Local Time) from K2G9 Reporting Station
Light Snow Light Snow  
Wind Chill:   Ceiling: 1300
Heat Index: 18°   Visibility: 5mi
Dew Point: 14°   Wind: 10mph
Humidity: 86%   Direction: 290°WNW
Pressure: 29.89"   Gusts: 16mph
Location:  40°N, 78.59°W
Report Text: K2G9 272255Z AUTO 29009G14KT 5SM -SN OVC013 M08/M10 A2989 RMK AO2
Loading
Personal Weather Stations






























Interactive Weather Map New forecast layout! Learn more

10-Day Weather Forecast

Advertisements
Track Severe Weather on mobile